sensor_id;sensor_type;location;lat;lon;timestamp;P1;durP1;ratioP1;P2;durP2;ratioP2
39322;SDS011;25036;53.638;10.134;2023-03-02T00:00:56;7.00;;;5.23;;
39322;SDS011;25036;53.638;10.134;2023-03-02T00:02:17;6.10;;;5.50;;
39322;SDS011;25036;53.638;10.134;2023-03-02T00:03:20;11.15;;;5.60;;
39322;SDS011;25036;53.638;10.134;2023-03-02T00:04:31;6.50;;;5.80;;
39322;SDS011;25036;53.638;10.134;2023-03-02T00:05:32;6.20;;;5.60;;
39322;SDS011;25036;53.638;10.134;2023-03-02T00:06:33;5.65;;;5.15;;
39322;SDS011;25036;53.638;10.134;2023-03-02T00:07:35;5.47;;;4.97;;
39322;SDS011;25036;53.638;10.134;2023-03-02T00:08:35;6.25;;;5.65;;
39322;SDS011;25036;53.638;10.134;2023-03-02T00:09:36;7.30;;;5.22;;
39322;SDS011;25036;53.638;10.134;2023-03-02T00:10:37;6.00;;;5.50;;
39322;SDS011;25036;53.638;10.134;2023-03-02T00:11:37;7.10;;;5.50;;
39322;SDS011;25036;53.638;10.134;2023-03-02T00:12:38;12.20;;;5.32;;
39322;SDS011;25036;53.638;10.134;2023-03-02T00:13:38;6.63;;;6.03;;
39322;SDS011;25036;53.638;10.134;2023-03-02T00:14:38;6.67;;;5.97;;
39322;SDS011;25036;53.638;10.134;2023-03-02T00:15:38;6.30;;;5.70;;
39322;SDS011;25036;53.638;10.134;2023-03-02T00:16:38;6.50;;;5.95;;
39322;SDS011;25036;53.638;10.134;2023-03-02T00:17:39;6.53;;;5.95;;
39322;SDS011;25036;53.638;10.134;2023-03-02T00:18:39;7.33;;;5.93;;
39322;SDS011;25036;53.638;10.134;2023-03-02T00:19:39;6.27;;;5.73;;
39322;SDS011;25036;53.638;10.134;2023-03-02T00:20:39;6.13;;;5.63;;
39322;SDS011;25036;53.638;10.134;2023-03-02T00:21:39;6.93;;;6.22;;
39322;SDS011;25036;53.638;10.134;2023-03-02T00:22:41;6.68;;;6.07;;
39322;SDS011;25036;53.638;10.134;2023-03-02T00:23:41;6.38;;;5.78;;
39322;SDS011;25036;53.638;10.134;2023-03-02T00:24:41;9.73;;;6.03;;
39322;SDS011;25036;53.638;10.134;2023-03-02T00:25:41;5.90;;;5.40;;
39322;SDS011;25036;53.638;10.134;2023-03-02T00:26:42;6.13;;;5.43;;
39322;SDS011;25036;53.638;10.134;2023-03-02T00:27:42;6.53;;;5.93;;
39322;SDS011;25036;53.638;10.134;2023-03-02T00:28:42;6.90;;;5.72;;
39322;SDS011;25036;53.638;10.134;2023-03-02T00:29:42;6.27;;;5.67;;
39322;SDS011;25036;53.638;10.134;2023-03-02T00:30:42;5.63;;;5.13;;
39322;SDS011;25036;53.638;10.134;2023-03-02T00:31:43;6.60;;;5.43;;
39322;SDS011;25036;53.638;10.134;2023-03-02T00:32:43;8.82;;;5.28;;
39322;SDS011;25036;53.638;10.134;2023-03-02T00:33:44;5.53;;;5.03;;
39322;SDS011;25036;53.638;10.134;2023-03-02T00:34:44;5.93;;;5.32;;
39322;SDS011;25036;53.638;10.134;2023-03-02T00:35:44;9.43;;;4.97;;
39322;SDS011;25036;53.638;10.134;2023-03-02T00:36:46;5.45;;;4.95;;
39322;SDS011;25036;53.638;10.134;2023-03-02T00:37:48;5.82;;;4.93;;
39322;SDS011;25036;53.638;10.134;2023-03-02T00:38:48;10.60;;;5.05;;
39322;SDS011;25036;53.638;10.134;2023-03-02T00:39:51;5.40;;;4.90;;
39322;SDS011;25036;53.638;10.134;2023-03-02T00:40:51;7.20;;;5.43;;
39322;SDS011;25036;53.638;10.134;2023-03-02T00:41:51;5.60;;;5.00;;
39322;SDS011;25036;53.638;10.134;2023-03-02T00:42:51;6.03;;;5.17;;
39322;SDS011;25036;53.638;10.134;2023-03-02T00:43:51;5.40;;;4.90;;
39322;SDS011;25036;53.638;10.134;2023-03-02T00:44:52;6.85;;;4.93;;
39322;SDS011;25036;53.638;10.134;2023-03-02T00:45:55;6.40;;;5.60;;
39322;SDS011;25036;53.638;10.134;2023-03-02T00:46:55;6.07;;;5.07;;
39322;SDS011;25036;53.638;10.134;2023-03-02T00:47:55;7.50;;;5.03;;
39322;SDS011;25036;53.638;10.134;2023-03-02T00:48:55;12.47;;;5.37;;
39322;SDS011;25036;53.638;10.134;2023-03-02T00:49:55;6.00;;;5.10;;
39322;SDS011;25036;53.638;10.134;2023-03-02T00:50:56;8.07;;;5.32;;
39322;SDS011;25036;53.638;10.134;2023-03-02T00:51:59;7.75;;;5.00;;
39322;SDS011;25036;53.638;10.134;2023-03-02T00:52:59;5.93;;;5.25;;
39322;SDS011;25036;53.638;10.134;2023-03-02T00:53:59;8.63;;;5.25;;
39322;SDS011;25036;53.638;10.134;2023-03-02T00:55:01;13.55;;;5.45;;
39322;SDS011;25036;53.638;10.134;2023-03-02T00:56:02;7.18;;;5.60;;
39322;SDS011;25036;53.638;10.134;2023-03-02T00:57:02;8.00;;;5.20;;
39322;SDS011;25036;53.638;10.134;2023-03-02T00:58:03;6.63;;;5.18;;
39322;SDS011;25036;53.638;10.134;2023-03-02T00:59:04;9.38;;;5.55;;
39322;SDS011;25036;53.638;10.134;2023-03-02T01:00:05;10.10;;;5.72;;
39322;SDS011;25036;53.638;10.134;2023-03-02T01:01:06;6.15;;;5.55;;
39322;SDS011;25036;53.638;10.134;2023-03-02T01:02:07;5.90;;;5.38;;
39322;SDS011;25036;53.638;10.134;2023-03-02T01:03:07;5.68;;;5.18;;
39322;SDS011;25036;53.638;10.134;2023-03-02T01:04:07;5.70;;;5.20;;
39322;SDS011;25036;53.638;10.134;2023-03-02T01:05:07;6.83;;;5.27;;
39322;SDS011;25036;53.638;10.134;2023-03-02T01:06:13;13.55;;;5.93;;
39322;SDS011;25036;53.638;10.134;2023-03-02T01:07:15;8.55;;;5.22;;
39322;SDS011;25036;53.638;10.134;2023-03-02T01:08:15;5.95;;;4.88;;
39322;SDS011;25036;53.638;10.134;2023-03-02T01:09:15;5.87;;;5.20;;
39322;SDS011;25036;53.638;10.134;2023-03-02T01:10:15;9.07;;;5.53;;
39322;SDS011;25036;53.638;10.134;2023-03-02T01:11:17;7.27;;;5.47;;
39322;SDS011;25036;53.638;10.134;2023-03-02T01:12:17;6.47;;;5.80;;
39322;SDS011;25036;53.638;10.134;2023-03-02T01:13:18;10.40;;;4.97;;
39322;SDS011;25036;53.638;10.134;2023-03-02T01:14:19;7.97;;;5.40;;
39322;SDS011;25036;53.638;10.134;2023-03-02T01:15:19;7.90;;;4.97;;
39322;SDS011;25036;53.638;10.134;2023-03-02T01:16:19;7.50;;;5.80;;
39322;SDS011;25036;53.638;10.134;2023-03-02T01:17:20;5.83;;;5.20;;
39322;SDS011;25036;53.638;10.134;2023-03-02T01:18:21;6.65;;;5.40;;
39322;SDS011;25036;53.638;10.134;2023-03-02T01:19:22;5.47;;;5.00;;
39322;SDS011;25036;53.638;10.134;2023-03-02T01:20:22;6.43;;;5.10;;
39322;SDS011;25036;53.638;10.134;2023-03-02T01:21:22;5.87;;;5.27;;
39322;SDS011;25036;53.638;10.134;2023-03-02T01:22:22;6.67;;;5.23;;
39322;SDS011;25036;53.638;10.134;2023-03-02T01:23:22;5.57;;;5.07;;
39322;SDS011;25036;53.638;10.134;2023-03-02T01:24:22;5.63;;;5.13;;
39322;SDS011;25036;53.638;10.134;2023-03-02T01:25:22;6.10;;;5.00;;
39322;SDS011;25036;53.638;10.134;2023-03-02T01:26:23;5.70;;;5.20;;
39322;SDS011;25036;53.638;10.134;2023-03-02T01:27:23;5.80;;;5.20;;
39322;SDS011;25036;53.638;10.134;2023-03-02T01:28:23;6.53;;;5.30;;
39322;SDS011;25036;53.638;10.134;2023-03-02T01:29:23;5.35;;;4.85;;
39322;SDS011;25036;53.638;10.134;2023-03-02T01:30:23;8.03;;;5.37;;
39322;SDS011;25036;53.638;10.134;2023-03-02T01:31:24;6.47;;;5.93;;
39322;SDS011;25036;53.638;10.134;2023-03-02T01:32:24;5.65;;;5.15;;
39322;SDS011;25036;53.638;10.134;2023-03-02T01:33:24;6.38;;;5.10;;
39322;SDS011;25036;53.638;10.134;2023-03-02T01:34:24;5.90;;;5.40;;
39322;SDS011;25036;53.638;10.134;2023-03-02T01:35:25;7.18;;;5.25;;
39322;SDS011;25036;53.638;10.134;2023-03-02T01:36:25;6.03;;;5.37;;
39322;SDS011;25036;53.638;10.134;2023-03-02T01:37:25;8.03;;;5.67;;
39322;SDS011;25036;53.638;10.134;2023-03-02T01:38:25;6.17;;;5.30;;
39322;SDS011;25036;53.638;10.134;2023-03-02T01:39:25;7.78;;;5.57;;
39322;SDS011;25036;53.638;10.134;2023-03-02T01:40:26;6.35;;;5.03;;
39322;SDS011;25036;53.638;10.134;2023-03-02T01:41:26;5.65;;;5.15;;
39322;SDS011;25036;53.638;10.134;2023-03-02T01:42:26;6.40;;;5.90;;
39322;SDS011;25036;53.638;10.134;2023-03-02T01:43:26;5.70;;;5.20;;
39322;SDS011;25036;53.638;10.134;2023-03-02T01:46:46;6.63;;;5.22;;
39322;SDS011;25036;53.638;10.134;2023-03-02T01:47:46;6.10;;;5.50;;
39322;SDS011;25036;53.638;10.134;2023-03-02T01:49:48;6.18;;;5.65;;
39322;SDS011;25036;53.638;10.134;2023-03-02T01:50:50;6.25;;;5.65;;
39322;SDS011;25036;53.638;10.134;2023-03-02T01:51:51;5.78;;;5.28;;
39322;SDS011;25036;53.638;10.134;2023-03-02T01:52:52;5.78;;;5.28;;
39322;SDS011;25036;53.638;10.134;2023-03-02T01:53:54;7.35;;;5.72;;
39322;SDS011;25036;53.638;10.134;2023-03-02T01:54:55;7.22;;;5.95;;
39322;SDS011;25036;53.638;10.134;2023-03-02T01:55:57;6.25;;;5.65;;
39322;SDS011;25036;53.638;10.134;2023-03-02T01:56:58;5.93;;;5.18;;
39322;SDS011;25036;53.638;10.134;2023-03-02T01:58:00;9.57;;;5.80;;
39322;SDS011;25036;53.638;10.134;2023-03-02T01:59:06;11.27;;;5.88;;
39322;SDS011;25036;53.638;10.134;2023-03-02T02:00:08;7.18;;;5.60;;
39322;SDS011;25036;53.638;10.134;2023-03-02T02:01:09;6.15;;;5.38;;
39322;SDS011;25036;53.638;10.134;2023-03-02T02:02:14;6.30;;;5.80;;
39322;SDS011;25036;53.638;10.134;2023-03-02T02:03:15;6.22;;;5.65;;
39322;SDS011;25036;53.638;10.134;2023-03-02T02:04:20;7.00;;;5.57;;
39322;SDS011;25036;53.638;10.134;2023-03-02T02:05:21;5.95;;;5.35;;
39322;SDS011;25036;53.638;10.134;2023-03-02T02:06:23;5.88;;;5.38;;
39322;SDS011;25036;53.638;10.134;2023-03-02T02:07:24;11.20;;;5.90;;
39322;SDS011;25036;53.638;10.134;2023-03-02T02:08:24;5.97;;;5.47;;
39322;SDS011;25036;53.638;10.134;2023-03-02T02:09:24;6.35;;;5.75;;
39322;SDS011;25036;53.638;10.134;2023-03-02T02:10:25;6.30;;;5.65;;
39322;SDS011;25036;53.638;10.134;2023-03-02T02:11:26;6.93;;;5.57;;
39322;SDS011;25036;53.638;10.134;2023-03-02T02:12:26;12.17;;;5.73;;
39322;SDS011;25036;53.638;10.134;2023-03-02T02:13:26;5.83;;;5.33;;
39322;SDS011;25036;53.638;10.134;2023-03-02T02:14:26;6.90;;;6.20;;
39322;SDS011;25036;53.638;10.134;2023-03-02T02:15:27;6.13;;;5.53;;
39322;SDS011;25036;53.638;10.134;2023-03-02T02:16:28;6.63;;;6.03;;
39322;SDS011;25036;53.638;10.134;2023-03-02T02:17:30;6.78;;;5.70;;
39322;SDS011;25036;53.638;10.134;2023-03-02T02:18:31;6.63;;;5.90;;
39322;SDS011;25036;53.638;10.134;2023-03-02T02:20:42;6.45;;;5.88;;
39322;SDS011;25036;53.638;10.134;2023-03-02T02:21:44;5.68;;;5.15;;
39322;SDS011;25036;53.638;10.134;2023-03-02T02:24:10;7.90;;;5.72;;
39322;SDS011;25036;53.638;10.134;2023-03-02T02:25:15;7.43;;;5.32;;
39322;SDS011;25036;53.638;10.134;2023-03-02T02:27:17;6.23;;;5.57;;
39322;SDS011;25036;53.638;10.134;2023-03-02T02:28:29;9.30;;;5.50;;
39322;SDS011;25036;53.638;10.134;2023-03-02T02:29:31;9.40;;;5.47;;
39322;SDS011;25036;53.638;10.134;2023-03-02T02:30:34;6.32;;;5.38;;
39322;SDS011;25036;53.638;10.134;2023-03-02T02:31:36;6.25;;;5.60;;
39322;SDS011;25036;53.638;10.134;2023-03-02T02:32:38;6.88;;;5.70;;
39322;SDS011;25036;53.638;10.134;2023-03-02T02:33:40;10.18;;;5.25;;
39322;SDS011;25036;53.638;10.134;2023-03-02T02:34:52;8.45;;;5.60;;
39322;SDS011;25036;53.638;10.134;2023-03-02T02:35:54;6.18;;;5.68;;
39322;SDS011;25036;53.638;10.134;2023-03-02T02:36:58;7.40;;;5.72;;
39322;SDS011;25036;53.638;10.134;2023-03-02T02:38:01;8.98;;;5.93;;
39322;SDS011;25036;53.638;10.134;2023-03-02T02:39:03;6.97;;;5.63;;
39322;SDS011;25036;53.638;10.134;2023-03-02T02:40:04;5.78;;;5.28;;
39322;SDS011;25036;53.638;10.134;2023-03-02T02:41:10;9.68;;;5.78;;
39322;SDS011;25036;53.638;10.134;2023-03-02T02:42:13;12.52;;;5.47;;
39322;SDS011;25036;53.638;10.134;2023-03-02T02:43:15;10.68;;;5.32;;
39322;SDS011;25036;53.638;10.134;2023-03-02T02:44:16;6.55;;;5.93;;
39322;SDS011;25036;53.638;10.134;2023-03-02T02:45:18;6.88;;;5.25;;
39322;SDS011;25036;53.638;10.134;2023-03-02T02:46:19;9.02;;;5.70;;
39322;SDS011;25036;53.638;10.134;2023-03-02T02:47:20;5.80;;;5.28;;
39322;SDS011;25036;53.638;10.134;2023-03-02T02:48:21;8.02;;;5.68;;
39322;SDS011;25036;53.638;10.134;2023-03-02T02:50:32;7.10;;;5.97;;
39322;SDS011;25036;53.638;10.134;2023-03-02T02:51:33;19.60;;;5.38;;
39322;SDS011;25036;53.638;10.134;2023-03-02T02:52:33;13.63;;;5.97;;
39322;SDS011;25036;53.638;10.134;2023-03-02T02:53:54;10.10;;;6.05;;
39322;SDS011;25036;53.638;10.134;2023-03-02T02:54:58;9.40;;;5.82;;
39322;SDS011;25036;53.638;10.134;2023-03-02T02:55:59;9.32;;;5.95;;
39322;SDS011;25036;53.638;10.134;2023-03-02T02:57:00;14.15;;;6.28;;
39322;SDS011;25036;53.638;10.134;2023-03-02T02:58:01;6.90;;;5.88;;
39322;SDS011;25036;53.638;10.134;2023-03-02T03:00:14;6.25;;;5.68;;
39322;SDS011;25036;53.638;10.134;2023-03-02T03:01:17;6.53;;;5.97;;
39322;SDS011;25036;53.638;10.134;2023-03-02T03:02:23;7.78;;;5.07;;
39322;SDS011;25036;53.638;10.134;2023-03-02T03:03:28;6.53;;;5.93;;
39322;SDS011;25036;53.638;10.134;2023-03-02T03:04:30;6.75;;;5.72;;
39322;SDS011;25036;53.638;10.134;2023-03-02T03:05:31;6.95;;;6.35;;
39322;SDS011;25036;53.638;10.134;2023-03-02T03:06:32;7.80;;;5.63;;
39322;SDS011;25036;53.638;10.134;2023-03-02T03:07:41;5.75;;;5.18;;
39322;SDS011;25036;53.638;10.134;2023-03-02T03:09:45;12.05;;;6.13;;
39322;SDS011;25036;53.638;10.134;2023-03-02T03:10:46;7.35;;;6.03;;
39322;SDS011;25036;53.638;10.134;2023-03-02T03:11:49;11.25;;;6.07;;
39322;SDS011;25036;53.638;10.134;2023-03-02T03:12:50;7.22;;;6.20;;
39322;SDS011;25036;53.638;10.134;2023-03-02T03:13:53;6.93;;;6.22;;
39322;SDS011;25036;53.638;10.134;2023-03-02T03:14:54;7.05;;;6.35;;
39322;SDS011;25036;53.638;10.134;2023-03-02T03:15:54;7.00;;;6.40;;
39322;SDS011;25036;53.638;10.134;2023-03-02T03:16:54;9.90;;;5.90;;
39322;SDS011;25036;53.638;10.134;2023-03-02T03:17:55;7.07;;;6.37;;
39322;SDS011;25036;53.638;10.134;2023-03-02T03:18:56;8.68;;;6.53;;
39322;SDS011;25036;53.638;10.134;2023-03-02T03:19:57;7.55;;;6.38;;
39322;SDS011;25036;53.638;10.134;2023-03-02T03:21:05;9.02;;;5.97;;
39322;SDS011;25036;53.638;10.134;2023-03-02T03:22:05;6.85;;;6.25;;
39322;SDS011;25036;53.638;10.134;2023-03-02T03:23:05;6.80;;;6.10;;
39322;SDS011;25036;53.638;10.134;2023-03-02T03:24:05;20.83;;;6.53;;
39322;SDS011;25036;53.638;10.134;2023-03-02T03:25:06;11.73;;;6.03;;
39322;SDS011;25036;53.638;10.134;2023-03-02T03:26:06;7.15;;;6.45;;
39322;SDS011;25036;53.638;10.134;2023-03-02T03:27:07;8.82;;;6.13;;
39322;SDS011;25036;53.638;10.134;2023-03-02T03:28:07;7.10;;;6.13;;
39322;SDS011;25036;53.638;10.134;2023-03-02T03:29:07;9.00;;;6.13;;
39322;SDS011;25036;53.638;10.134;2023-03-02T03:30:09;7.00;;;6.28;;
39322;SDS011;25036;53.638;10.134;2023-03-02T03:31:09;6.70;;;6.10;;
39322;SDS011;25036;53.638;10.134;2023-03-02T03:32:09;9.30;;;5.78;;
39322;SDS011;25036;53.638;10.134;2023-03-02T03:33:10;14.80;;;5.32;;
39322;SDS011;25036;53.638;10.134;2023-03-02T03:34:10;6.73;;;5.40;;
39322;SDS011;25036;53.638;10.134;2023-03-02T03:35:10;13.13;;;5.50;;
39322;SDS011;25036;53.638;10.134;2023-03-02T03:36:11;22.10;;;5.55;;
39322;SDS011;25036;53.638;10.134;2023-03-02T03:37:13;8.67;;;5.23;;
39322;SDS011;25036;53.638;10.134;2023-03-02T03:38:13;10.80;;;5.63;;
39322;SDS011;25036;53.638;10.134;2023-03-02T03:39:15;8.97;;;5.40;;
39322;SDS011;25036;53.638;10.134;2023-03-02T03:40:15;20.23;;;5.25;;
39322;SDS011;25036;53.638;10.134;2023-03-02T03:41:15;7.00;;;6.20;;
39322;SDS011;25036;53.638;10.134;2023-03-02T03:42:15;10.00;;;5.67;;
39322;SDS011;25036;53.638;10.134;2023-03-02T03:43:15;6.43;;;5.72;;
39322;SDS011;25036;53.638;10.134;2023-03-02T03:44:16;12.98;;;5.50;;
39322;SDS011;25036;53.638;10.134;2023-03-02T03:45:16;12.80;;;5.97;;
39322;SDS011;25036;53.638;10.134;2023-03-02T03:46:16;8.20;;;5.47;;
39322;SDS011;25036;53.638;10.134;2023-03-02T03:47:16;22.23;;;6.18;;
39322;SDS011;25036;53.638;10.134;2023-03-02T03:48:17;13.83;;;6.00;;
39322;SDS011;25036;53.638;10.134;2023-03-02T03:49:17;8.17;;;5.57;;
39322;SDS011;25036;53.638;10.134;2023-03-02T03:50:17;9.30;;;6.18;;
39322;SDS011;25036;53.638;10.134;2023-03-02T03:51:17;15.65;;;6.18;;
39322;SDS011;25036;53.638;10.134;2023-03-02T03:52:17;16.05;;;6.22;;
39322;SDS011;25036;53.638;10.134;2023-03-02T03:53:25;12.00;;;5.85;;
39322;SDS011;25036;53.638;10.134;2023-03-02T03:54:25;12.82;;;6.07;;
39322;SDS011;25036;53.638;10.134;2023-03-02T03:55:25;9.30;;;6.40;;
39322;SDS011;25036;53.638;10.134;2023-03-02T03:56:28;19.98;;;6.15;;
39322;SDS011;25036;53.638;10.134;2023-03-02T03:57:29;31.27;;;6.97;;
39322;SDS011;25036;53.638;10.134;2023-03-02T03:58:29;14.68;;;6.40;;
39322;SDS011;25036;53.638;10.134;2023-03-02T03:59:30;10.05;;;6.13;;
39322;SDS011;25036;53.638;10.134;2023-03-02T04:00:30;18.40;;;6.80;;
39322;SDS011;25036;53.638;10.134;2023-03-02T04:01:31;13.20;;;6.20;;
39322;SDS011;25036;53.638;10.134;2023-03-02T04:02:33;8.85;;;6.47;;
39322;SDS011;25036;53.638;10.134;2023-03-02T04:03:33;11.10;;;6.80;;
39322;SDS011;25036;53.638;10.134;2023-03-02T04:04:34;14.67;;;6.87;;
39322;SDS011;25036;53.638;10.134;2023-03-02T04:05:34;11.57;;;6.80;;
39322;SDS011;25036;53.638;10.134;2023-03-02T04:06:34;9.68;;;7.03;;
39322;SDS011;25036;53.638;10.134;2023-03-02T04:07:35;11.23;;;7.32;;
39322;SDS011;25036;53.638;10.134;2023-03-02T04:08:35;11.48;;;7.78;;
39322;SDS011;25036;53.638;10.134;2023-03-02T04:09:35;7.87;;;7.17;;
39322;SDS011;25036;53.638;10.134;2023-03-02T04:10:36;11.60;;;6.75;;
39322;SDS011;25036;53.638;10.134;2023-03-02T04:11:39;9.05;;;7.13;;
39322;SDS011;25036;53.638;10.134;2023-03-02T04:12:39;8.50;;;7.15;;
39322;SDS011;25036;53.638;10.134;2023-03-02T04:13:40;9.05;;;6.55;;
39322;SDS011;25036;53.638;10.134;2023-03-02T04:14:40;7.00;;;6.40;;
39322;SDS011;25036;53.638;10.134;2023-03-02T04:15:40;9.02;;;6.45;;
39322;SDS011;25036;53.638;10.134;2023-03-02T04:16:41;10.77;;;6.07;;
39322;SDS011;25036;53.638;10.134;2023-03-02T04:17:41;17.92;;;7.10;;
39322;SDS011;25036;53.638;10.134;2023-03-02T04:18:43;7.95;;;6.70;;
39322;SDS011;25036;53.638;10.134;2023-03-02T04:19:43;10.17;;;6.57;;
39322;SDS011;25036;53.638;10.134;2023-03-02T04:20:44;7.30;;;6.70;;
39322;SDS011;25036;53.638;10.134;2023-03-02T04:21:46;16.23;;;7.18;;
39322;SDS011;25036;53.638;10.134;2023-03-02T04:22:47;16.38;;;7.47;;
39322;SDS011;25036;53.638;10.134;2023-03-02T04:23:48;8.35;;;7.40;;
39322;SDS011;25036;53.638;10.134;2023-03-02T04:24:48;9.73;;;7.25;;
39322;SDS011;25036;53.638;10.134;2023-03-02T04:25:48;18.45;;;7.45;;
39322;SDS011;25036;53.638;10.134;2023-03-02T04:26:49;10.53;;;7.47;;
39322;SDS011;25036;53.638;10.134;2023-03-02T04:27:49;8.38;;;7.28;;
39322;SDS011;25036;53.638;10.134;2023-03-02T04:28:50;11.75;;;6.90;;
39322;SDS011;25036;53.638;10.134;2023-03-02T04:29:51;8.55;;;6.60;;
39322;SDS011;25036;53.638;10.134;2023-03-02T04:30:51;14.15;;;7.03;;
39322;SDS011;25036;53.638;10.134;2023-03-02T04:31:52;9.13;;;6.75;;
39322;SDS011;25036;53.638;10.134;2023-03-02T04:32:52;8.23;;;6.65;;
39322;SDS011;25036;53.638;10.134;2023-03-02T04:33:53;8.02;;;7.32;;
39322;SDS011;25036;53.638;10.134;2023-03-02T04:34:53;17.70;;;7.20;;
39322;SDS011;25036;53.638;10.134;2023-03-02T04:35:53;13.07;;;7.53;;
39322;SDS011;25036;53.638;10.134;2023-03-02T04:36:56;11.80;;;7.18;;
39322;SDS011;25036;53.638;10.134;2023-03-02T04:37:56;7.67;;;6.60;;
39322;SDS011;25036;53.638;10.134;2023-03-02T04:38:56;7.85;;;6.78;;
39322;SDS011;25036;53.638;10.134;2023-03-02T04:39:56;7.50;;;6.80;;
39322;SDS011;25036;53.638;10.134;2023-03-02T04:40:57;7.20;;;6.50;;
39322;SDS011;25036;53.638;10.134;2023-03-02T04:41:57;7.47;;;6.45;;
39322;SDS011;25036;53.638;10.134;2023-03-02T04:42:57;7.50;;;6.67;;
39322;SDS011;25036;53.638;10.134;2023-03-02T04:43:57;10.67;;;6.77;;
39322;SDS011;25036;53.638;10.134;2023-03-02T04:44:57;18.30;;;6.40;;
39322;SDS011;25036;53.638;10.134;2023-03-02T04:45:58;10.33;;;6.33;;
39322;SDS011;25036;53.638;10.134;2023-03-02T04:46:58;7.73;;;7.03;;
39322;SDS011;25036;53.638;10.134;2023-03-02T04:47:58;9.47;;;6.20;;
39322;SDS011;25036;53.638;10.134;2023-03-02T04:48:58;6.97;;;6.30;;
39322;SDS011;25036;53.638;10.134;2023-03-02T04:49:59;6.97;;;6.30;;
39322;SDS011;25036;53.638;10.134;2023-03-02T04:50:59;7.37;;;6.77;;
39322;SDS011;25036;53.638;10.134;2023-03-02T04:51:59;6.27;;;5.77;;
39322;SDS011;25036;53.638;10.134;2023-03-02T04:52:59;7.32;;;6.63;;
39322;SDS011;25036;53.638;10.134;2023-03-02T04:54:00;6.73;;;6.13;;
39322;SDS011;25036;53.638;10.134;2023-03-02T04:55:02;6.95;;;6.30;;
39322;SDS011;25036;53.638;10.134;2023-03-02T04:56:02;9.32;;;5.78;;
39322;SDS011;25036;53.638;10.134;2023-03-02T04:57:02;7.20;;;6.50;;
39322;SDS011;25036;53.638;10.134;2023-03-02T04:58:03;7.15;;;6.45;;
39322;SDS011;25036;53.638;10.134;2023-03-02T04:59:03;7.35;;;6.45;;
39322;SDS011;25036;53.638;10.134;2023-03-02T05:00:03;6.90;;;6.27;;
39322;SDS011;25036;53.638;10.134;2023-03-02T05:01:03;7.50;;;6.80;;
39322;SDS011;25036;53.638;10.134;2023-03-02T05:02:04;9.40;;;6.73;;
39322;SDS011;25036;53.638;10.134;2023-03-02T05:03:04;7.00;;;6.15;;
39322;SDS011;25036;53.638;10.134;2023-03-02T05:04:05;7.10;;;6.40;;
39322;SDS011;25036;53.638;10.134;2023-03-02T05:05:05;7.00;;;6.40;;
39322;SDS011;25036;53.638;10.134;2023-03-02T05:06:05;6.95;;;6.35;;
39322;SDS011;25036;53.638;10.134;2023-03-02T05:07:06;9.52;;;6.75;;
39322;SDS011;25036;53.638;10.134;2023-03-02T05:08:06;7.28;;;6.57;;
39322;SDS011;25036;53.638;10.134;2023-03-02T05:09:07;7.55;;;6.95;;
39322;SDS011;25036;53.638;10.134;2023-03-02T05:10:07;7.40;;;6.70;;
39322;SDS011;25036;53.638;10.134;2023-03-02T05:11:15;7.28;;;6.68;;
39322;SDS011;25036;53.638;10.134;2023-03-02T05:12:20;7.18;;;6.57;;
39322;SDS011;25036;53.638;10.134;2023-03-02T05:13:21;7.28;;;6.50;;
39322;SDS011;25036;53.638;10.134;2023-03-02T05:14:21;7.97;;;7.00;;
39322;SDS011;25036;53.638;10.134;2023-03-02T05:15:22;7.50;;;6.80;;
39322;SDS011;25036;53.638;10.134;2023-03-02T05:16:23;7.30;;;6.60;;
39322;SDS011;25036;53.638;10.134;2023-03-02T05:17:24;7.50;;;6.80;;
39322;SDS011;25036;53.638;10.134;2023-03-02T05:18:24;6.80;;;6.20;;
39322;SDS011;25036;53.638;10.134;2023-03-02T05:19:24;7.82;;;7.00;;
39322;SDS011;25036;53.638;10.134;2023-03-02T05:20:25;8.67;;;6.87;;
39322;SDS011;25036;53.638;10.134;2023-03-02T05:21:26;9.73;;;7.05;;
39322;SDS011;25036;53.638;10.134;2023-03-02T05:22:26;13.25;;;6.70;;
39322;SDS011;25036;53.638;10.134;2023-03-02T05:23:26;16.33;;;6.77;;
39322;SDS011;25036;53.638;10.134;2023-03-02T05:24:30;16.17;;;8.05;;
39322;SDS011;25036;53.638;10.134;2023-03-02T05:25:31;16.98;;;5.68;;
39322;SDS011;25036;53.638;10.134;2023-03-02T05:26:32;23.58;;;7.30;;
39322;SDS011;25036;53.638;10.134;2023-03-02T05:27:32;13.13;;;7.10;;
39322;SDS011;25036;53.638;10.134;2023-03-02T05:28:32;8.63;;;6.87;;
39322;SDS011;25036;53.638;10.134;2023-03-02T05:29:32;8.90;;;6.80;;
39322;SDS011;25036;53.638;10.134;2023-03-02T05:30:32;9.17;;;6.80;;
39322;SDS011;25036;53.638;10.134;2023-03-02T05:31:37;12.85;;;6.78;;
39322;SDS011;25036;53.638;10.134;2023-03-02T05:32:38;10.43;;;6.72;;
39322;SDS011;25036;53.638;10.134;2023-03-02T05:33:38;18.25;;;6.95;;
39322;SDS011;25036;53.638;10.134;2023-03-02T05:34:38;11.63;;;6.63;;
39322;SDS011;25036;53.638;10.134;2023-03-02T05:35:38;16.02;;;6.55;;
39322;SDS011;25036;53.638;10.134;2023-03-02T05:36:39;16.52;;;6.47;;
39322;SDS011;25036;53.638;10.134;2023-03-02T05:37:39;11.25;;;7.40;;
39322;SDS011;25036;53.638;10.134;2023-03-02T05:38:43;11.98;;;7.00;;
39322;SDS011;25036;53.638;10.134;2023-03-02T05:39:43;9.60;;;6.85;;
39322;SDS011;25036;53.638;10.134;2023-03-02T05:40:43;7.23;;;6.60;;
39322;SDS011;25036;53.638;10.134;2023-03-02T05:41:44;14.35;;;6.82;;
39322;SDS011;25036;53.638;10.134;2023-03-02T05:42:44;14.80;;;6.60;;
39322;SDS011;25036;53.638;10.134;2023-03-02T05:43:45;9.80;;;7.07;;
39322;SDS011;25036;53.638;10.134;2023-03-02T05:44:45;10.40;;;6.60;;
39322;SDS011;25036;53.638;10.134;2023-03-02T05:45:45;9.17;;;6.87;;
39322;SDS011;25036;53.638;10.134;2023-03-02T05:46:45;10.30;;;7.47;;
39322;SDS011;25036;53.638;10.134;2023-03-02T05:47:45;7.25;;;6.55;;
39322;SDS011;25036;53.638;10.134;2023-03-02T05:48:45;11.18;;;6.50;;
39322;SDS011;25036;53.638;10.134;2023-03-02T05:49:46;7.17;;;6.47;;
39322;SDS011;25036;53.638;10.134;2023-03-02T05:50:46;10.13;;;7.60;;
39322;SDS011;25036;53.638;10.134;2023-03-02T05:51:46;21.13;;;6.70;;
39322;SDS011;25036;53.638;10.134;2023-03-02T05:52:46;19.10;;;7.37;;
39322;SDS011;25036;53.638;10.134;2023-03-02T05:53:46;12.20;;;7.18;;
39322;SDS011;25036;53.638;10.134;2023-03-02T05:54:46;14.03;;;7.40;;
39322;SDS011;25036;53.638;10.134;2023-03-02T05:55:47;11.03;;;6.73;;
39322;SDS011;25036;53.638;10.134;2023-03-02T05:56:47;11.35;;;7.30;;
39322;SDS011;25036;53.638;10.134;2023-03-02T05:57:47;9.73;;;6.73;;
39322;SDS011;25036;53.638;10.134;2023-03-02T05:58:48;7.45;;;6.65;;
39322;SDS011;25036;53.638;10.134;2023-03-02T05:59:48;9.77;;;7.32;;
39322;SDS011;25036;53.638;10.134;2023-03-02T06:00:49;8.15;;;7.30;;
39322;SDS011;25036;53.638;10.134;2023-03-02T06:01:50;9.65;;;7.43;;
39322;SDS011;25036;53.638;10.134;2023-03-02T06:02:51;11.43;;;8.07;;
39322;SDS011;25036;53.638;10.134;2023-03-02T06:03:51;13.93;;;7.63;;
39322;SDS011;25036;53.638;10.134;2023-03-02T06:04:51;8.70;;;7.30;;
39322;SDS011;25036;53.638;10.134;2023-03-02T06:05:51;8.53;;;7.60;;
39322;SDS011;25036;53.638;10.134;2023-03-02T06:06:51;8.57;;;7.77;;
39322;SDS011;25036;53.638;10.134;2023-03-02T06:07:52;10.93;;;7.95;;
39322;SDS011;25036;53.638;10.134;2023-03-02T06:08:52;12.32;;;7.20;;
39322;SDS011;25036;53.638;10.134;2023-03-02T06:09:52;8.95;;;7.68;;
39322;SDS011;25036;53.638;10.134;2023-03-02T06:10:56;15.17;;;7.13;;
39322;SDS011;25036;53.638;10.134;2023-03-02T06:11:56;10.02;;;7.60;;